Photo de Laille
https://tgftp.nws.noaa.gov/data/observations/metar/stations/LFRN.TXT2019/12/15 19:30 LFRN 151930Z AUTO 17007KT CAVOK 07/05 Q1004 TEMPO 4000 SHRA
Rennes
Ciel dégagé
Metar : 2019/12/15 19:00 LFRN 151900Z AUTO 16007KT CAVOK 07/05 Q1004 TEMPO 4000 SHRA
Couverture nuageuse :
Pression de 29.65 inHg (1004 hPa)
Humidité : 87%
Température : 45°F (7°C)
Vent de SSE at 8 mph (13 km/h)
Visibilité : greater than 7 miles (10 km)
Nantes
nuageux
Metar : 2019/12/15 19:30 LFRS 151930Z AUTO 18007KT 9999 FEW017 BKN025 BKN040 10/09 Q1005 TEMPO SCT025TCU
Couverture nuageuse : Few Clouds 1700 ft Mostly Cloudy 2500 ft Mostly Cloudy 4000 ft
Traduc : Partly cloudy 700 ft
Pression de 29.68 inHg (1005 hPa)
Humidité : 94%
Température : 50°F (10°C)
Point de rosée : 48°F (9°C)
Vent de S at 8 mph (13 km/h)
Visibilité : 6 miles (10 km)
Lannion
Ciel dégagé
Metar : 2019/12/15 19:30 LFRO 151930Z AUTO 18010KT 140V210 CAVOK 08/05 Q1001
Couverture nuageuse :
Traduc : Partly cloudy 700 ft
Pression de 29.56 inHg (1001 hPa)
Humidité : 82%
Température : 46°F (8°C)
Point de rosée : 41°F (5°C)
Vent de S at 12 mph (19 km/h)
Visibilité : greater than 7 miles (10 km)
Dinard
Ciel dégagé
Metar : 2019/12/15 19:30 LFRD 151930Z AUTO 17010KT CAVOK 07/04 Q1003 TEMPO 4000 SHRA
Couverture nuageuse :
Traduc : Partly cloudy 700 ft
Pression de 29.62 inHg (1003 hPa)
Humidité : 81%
Température : 45°F (7°C)
Point de rosée : 39°F (4°C)
Vent de S at 12 mph (19 km/h)
Visibilité : greater than 7 miles (10 km)
Brest
couvert
Metar : 2019/12/15 19:30 LFRB 151930Z AUTO 19015KT 9999 BKN024 OVC032 09/07 Q1000 NOSIG
Couverture nuageuse : Mostly Cloudy 2400 ft Overcast 3200 ft
Traduc : Partly cloudy 700 ft
Pression de 29.53 inHg (1000 hPa)
Humidité : 87%
Température : 48°F (9°C)
Point de rosée : 45°F (7°C)
Vent de S at 17 mph (28 km/h)
Visibilité : 6 miles (10 km)
Quimper
nuageux
Metar : 2019/12/15 19:30 LFRQ 151930Z AUTO 20009KT 170V230 9999 SCT034 BKN042 BKN048 09/06 Q1002 NOSIG
Couverture nuageuse : Partly Cloudy 3400 ft Mostly Cloudy 4200 ft Mostly Cloudy 4800 ft
Traduc : Partly cloudy 700 ft
Pression de 29.59 inHg (1002 hPa)
Humidité : 82%
Température : 48°F (9°C)
Point de rosée : 43°F (6°C)
Vent de SSW at 10 mph (17 km/h)
Visibilité : 6 miles (10 km)
St Nazaire
Ciel dégagé
Metar : 2019/12/15 19:30 LFRZ 151930Z AUTO 20010KT CAVOK 10/09 Q1005 TEMPO SCT025TCU
Couverture nuageuse :
Traduc : Partly cloudy 700 ft
Pression de 29.68 inHg (1005 hPa)
Humidité : 94%
Température : 50°F (10°C)
Point de rosée : 48°F (9°C)
Vent de SSW at 12 mph (19 km/h)
Visibilité : greater than 7 miles (10 km)
St Brieuc
Ciel dégagé
Metar : 2019/12/15 19:30 LFRT 151930Z AUTO 19010KT 170V230 CAVOK 07/05 Q1001
Couverture nuageuse :
Traduc : Partly cloudy 700 ft
Pression de 29.56 inHg (1001 hPa)
Humidité : 87%
Température : 45°F (7°C)
Point de rosée : 41°F (5°C)
Vent de S at 12 mph (19 km/h)
Visibilité : greater than 7 miles (10 km)
Lorient
nuageux
Metar : 2019/12/15 19:30 LFRH 151930Z AUTO 22013KT 9999 SCT030 BKN040 BKN050 10/06 Q1003 TEMPO VRB15G25KT 4000 SHRA BKN020TCU
Couverture nuageuse : Partly Cloudy 3000 ft Mostly Cloudy 4000 ft Mostly Cloudy 5000 ft
Traduc : Partly cloudy 700 ft
Pression de 29.62 inHg (1003 hPa)
Humidité : 76%
Température : 50°F (10°C)
Point de rosée : 43°F (6°C)
Vent de SW at 15 mph (24 km/h)
Visibilité : 6 miles (10 km)
Vannes-Meucon
Ciel dégagé
Metar : 2019/12/15 19:30 LFRV 151930Z AUTO 21007KT 180V250 CAVOK 10/06 Q1003
Couverture nuageuse :
Traduc : Partly cloudy 700 ft
Pression de 29.62 inHg (1003 hPa)
Humidité : 76%
Température : 50°F (10°C)
Point de rosée : 43°F (6°C)
Vent de SSW at 8 mph (13 km/h)
Visibilité : greater than 7 miles (10 km)

 


   Weather Underground PWS IBRETAGN39      Weather Underground PWS IBRETAGN39Retour Météo-Laillé adhérent de Météo-Bretagne et d'Infoclimat. Données mises à jour en temps réel via Météolink Climatologie réalisée sous Wswin et GraphWeather.

Affichage prévisions météo de WeatherUnderground via script PHP de Saratoga.

Copyright 2012-2018